createdAt,value
2023-03-11T00:01:49.350Z,5.25
2023-03-11T00:03:54.234Z,5.30
2023-03-11T00:06:03.610Z,5.90
2023-03-11T00:08:12.024Z,6.13
2023-03-11T00:10:19.074Z,5.03
2023-03-11T00:12:26.519Z,6.68
2023-03-11T00:14:31.588Z,5.30
2023-03-11T00:16:36.506Z,4.53
2023-03-11T00:18:41.371Z,4.68
2023-03-11T00:20:49.305Z,4.35
2023-03-11T00:22:54.299Z,5.97
2023-03-11T00:24:59.160Z,4.38
2023-03-11T00:27:04.097Z,4.80
2023-03-11T00:29:12.125Z,5.15
2023-03-11T00:31:19.621Z,4.30
2023-03-11T00:33:24.511Z,5.18
2023-03-11T00:35:33.453Z,5.82
2023-03-11T00:37:38.334Z,5.75
2023-03-11T00:39:43.300Z,5.68
2023-03-11T00:41:50.767Z,6.35
2023-03-11T00:43:55.677Z,6.43
2023-03-11T00:46:04.956Z,8.70
2023-03-11T00:48:11.088Z,3.78
2023-03-11T00:50:20.569Z,5.07
2023-03-11T00:52:25.723Z,4.72
2023-03-11T00:54:31.088Z,3.85
2023-03-11T00:56:36.260Z,4.30
2023-03-11T00:58:42.175Z,4.93
2023-03-11T01:00:47.362Z,4.57
2023-03-11T01:02:56.608Z,3.10
2023-03-11T01:05:01.450Z,4.90
2023-03-11T01:07:06.609Z,3.88
2023-03-11T01:09:11.455Z,4.18
2023-03-11T01:11:16.346Z,3.67
2023-03-11T01:13:24.216Z,3.70
2023-03-11T01:15:33.238Z,3.92
2023-03-11T01:17:38.663Z,5.25
2023-03-11T01:19:46.091Z,4.00
2023-03-11T01:21:51.470Z,4.03
2023-03-11T01:23:56.354Z,3.75
2023-03-11T01:26:04.275Z,3.60
2023-03-11T01:28:10.491Z,3.53
2023-03-11T01:30:19.465Z,5.53
2023-03-11T01:32:24.636Z,3.55
2023-03-11T01:34:29.589Z,3.80
2023-03-11T01:36:39.308Z,3.85
2023-03-11T01:38:44.345Z,7.43
2023-03-11T01:40:52.285Z,6.10
2023-03-11T01:42:58.069Z,5.05
2023-03-11T01:45:03.246Z,4.72
2023-03-11T01:47:41.597Z,4.85
2023-03-11T01:49:48.118Z,4.38
2023-03-11T01:52:00.264Z,5.13
2023-03-11T01:54:11.454Z,4.20
2023-03-11T01:56:17.590Z,4.72
2023-03-11T01:58:28.249Z,4.15
2023-03-11T02:00:33.239Z,4.47
2023-03-11T02:02:43.309Z,4.30
2023-03-11T02:04:49.236Z,4.15
2023-03-11T02:06:58.177Z,4.38
2023-03-11T02:09:04.346Z,4.28
2023-03-11T02:11:14.281Z,3.42
2023-03-11T02:13:20.723Z,3.33
2023-03-11T02:15:28.513Z,3.63
2023-03-11T02:17:37.168Z,3.95
2023-03-11T02:20:02.093Z,3.45
2023-03-11T02:22:11.468Z,3.90
2023-03-11T02:24:24.223Z,4.05
2023-03-11T02:26:36.022Z,3.65
2023-03-11T02:28:45.533Z,4.55
2023-03-11T02:30:52.497Z,4.55
2023-03-11T02:32:59.149Z,5.00
2023-03-11T02:35:04.206Z,3.97
2023-03-11T02:37:11.809Z,5.15
2023-03-11T02:39:20.088Z,4.63
2023-03-11T02:41:25.067Z,6.05
2023-03-11T02:43:37.412Z,5.80
2023-03-11T02:45:48.455Z,4.68
2023-03-11T02:47:55.648Z,4.47
2023-03-11T02:50:00.985Z,4.18
2023-03-11T02:52:06.779Z,5.05
2023-03-11T02:54:12.334Z,7.63
2023-03-11T02:56:17.387Z,6.00
2023-03-11T02:58:22.788Z,5.00
2023-03-11T03:00:28.494Z,5.43
2023-03-11T03:02:41.714Z,5.13
2023-03-11T03:04:47.688Z,4.75
2023-03-11T03:06:53.376Z,5.95
2023-03-11T03:08:59.164Z,4.90
2023-03-11T03:11:04.095Z,5.18
2023-03-11T03:13:09.005Z,4.95
2023-03-11T03:15:16.356Z,6.85
2023-03-11T03:17:22.399Z,5.47
2023-03-11T03:19:30.316Z,7.30
2023-03-11T03:21:35.209Z,5.88
2023-03-11T03:23:40.672Z,4.85
2023-03-11T03:25:46.346Z,5.38
2023-03-11T03:27:52.241Z,6.00
2023-03-11T03:29:58.254Z,5.18
2023-03-11T03:32:03.277Z,5.30
2023-03-11T03:34:08.513Z,5.57
2023-03-11T03:36:18.382Z,6.45
2023-03-11T03:38:28.540Z,7.03
2023-03-11T03:40:34.056Z,6.75
2023-03-11T03:42:42.353Z,5.75
2023-03-11T03:44:48.017Z,6.00
2023-03-11T03:46:52.992Z,6.13
2023-03-11T03:48:58.179Z,6.05
2023-03-11T03:51:08.635Z,6.13
2023-03-11T03:53:19.249Z,6.30
2023-03-11T03:55:24.432Z,6.00
2023-03-11T03:57:31.278Z,5.68
2023-03-11T03:59:36.605Z,12.38
2023-03-11T04:01:41.476Z,9.18
2023-03-11T04:03:46.856Z,7.35
2023-03-11T04:05:52.607Z,6.38
2023-03-11T04:07:58.278Z,5.13
2023-03-11T04:10:07.244Z,6.05
2023-03-11T04:12:17.516Z,6.28
2023-03-11T04:14:23.835Z,5.60
2023-03-11T04:16:33.729Z,6.30
2023-03-11T04:18:43.265Z,6.40
2023-03-11T04:20:48.478Z,5.25
2023-03-11T04:22:53.611Z,5.28
2023-03-11T04:25:01.894Z,6.10
2023-03-11T04:27:12.262Z,5.47
2023-03-11T04:29:18.842Z,6.45
2023-03-11T04:31:27.902Z,5.63
2023-03-11T04:33:33.361Z,5.47
2023-03-11T04:35:41.269Z,5.03
2023-03-11T04:37:46.212Z,5.03
2023-03-11T04:39:54.217Z,5.00
2023-03-11T04:42:01.173Z,4.53
2023-03-11T04:44:10.485Z,7.05
2023-03-11T04:46:16.048Z,5.05
2023-03-11T04:48:21.360Z,5.43
2023-03-11T04:50:27.643Z,4.78
2023-03-11T04:52:32.753Z,4.47
2023-03-11T04:54:37.758Z,6.30
2023-03-11T04:56:43.894Z,7.32
2023-03-11T04:58:49.012Z,4.57
2023-03-11T05:00:57.747Z,4.50
2023-03-11T05:03:03.114Z,6.30
2023-03-11T05:05:10.756Z,5.00
2023-03-11T05:07:16.683Z,4.10
2023-03-11T05:09:22.091Z,6.80
2023-03-11T05:11:27.880Z,6.18
2023-03-11T05:13:33.082Z,4.40
2023-03-11T05:15:38.796Z,4.93
2023-03-11T05:17:47.414Z,4.18
2023-03-11T05:19:53.701Z,4.80
2023-03-11T05:22:04.113Z,6.28
2023-03-11T05:24:09.872Z,5.10
2023-03-11T05:26:14.754Z,5.43
2023-03-11T05:28:21.787Z,4.78
2023-03-11T05:30:30.290Z,6.13
2023-03-11T05:32:36.566Z,5.90
2023-03-11T05:34:46.698Z,6.22
2023-03-11T05:36:53.816Z,6.13
2023-03-11T05:39:00.396Z,5.30
2023-03-11T05:41:07.206Z,7.05
2023-03-11T05:43:12.688Z,4.70
2023-03-11T05:45:21.171Z,6.18
2023-03-11T05:47:28.326Z,7.60
2023-03-11T05:49:35.162Z,8.88
2023-03-11T05:51:42.942Z,4.25
2023-03-11T05:53:49.967Z,5.78
2023-03-11T05:56:07.669Z,6.20
2023-03-11T05:58:12.817Z,4.78
2023-03-11T06:00:20.580Z,5.93
2023-03-11T06:02:29.790Z,6.70
2023-03-11T06:04:34.802Z,3.88
2023-03-11T06:06:45.487Z,3.90
2023-03-11T06:08:51.268Z,6.43
2023-03-11T06:11:04.979Z,5.88
2023-03-11T06:13:10.483Z,4.97
2023-03-11T06:15:24.606Z,4.43
2023-03-11T06:17:31.543Z,6.60
2023-03-11T06:19:36.878Z,4.95
2023-03-11T06:21:44.809Z,4.65
2023-03-11T06:23:50.286Z,8.30
2023-03-11T06:25:59.511Z,3.67
2023-03-11T06:28:06.412Z,5.53
2023-03-11T06:30:14.457Z,5.03
2023-03-11T06:32:27.355Z,5.30
2023-03-11T06:34:32.242Z,5.40
2023-03-11T06:36:37.300Z,6.05
2023-03-11T06:38:46.502Z,4.72
2023-03-11T06:40:52.477Z,6.05
2023-03-11T06:42:57.946Z,4.03
2023-03-11T06:45:04.598Z,4.72
2023-03-11T06:47:10.062Z,5.60
2023-03-11T06:49:15.185Z,6.07
2023-03-11T06:51:21.656Z,5.40
2023-03-11T06:53:27.231Z,6.75
2023-03-11T06:55:34.769Z,3.80
2023-03-11T06:57:40.687Z,7.53
2023-03-11T06:59:47.928Z,6.90
2023-03-11T07:01:55.679Z,4.88
2023-03-11T07:04:00.590Z,5.85
2023-03-11T07:06:06.756Z,4.72
2023-03-11T07:08:11.816Z,6.45
2023-03-11T07:10:17.412Z,5.15
2023-03-11T07:12:25.782Z,4.82
2023-03-11T07:14:30.811Z,6.15
2023-03-11T07:16:36.006Z,6.03
2023-03-11T07:18:48.008Z,5.07
2023-03-11T07:20:53.118Z,3.65
2023-03-11T07:22:58.558Z,3.60
2023-03-11T07:25:03.425Z,5.40
2023-03-11T07:27:08.892Z,4.38
2023-03-11T07:29:16.351Z,4.10
2023-03-11T07:31:23.968Z,5.45
2023-03-11T07:33:29.093Z,5.22
2023-03-11T07:35:34.357Z,5.80
2023-03-11T07:37:39.476Z,3.90
2023-03-11T07:39:44.335Z,3.53
2023-03-11T07:41:49.885Z,4.60
2023-03-11T07:43:58.840Z,5.10
2023-03-11T07:46:16.562Z,6.10
2023-03-11T07:48:21.777Z,4.78
2023-03-11T07:50:26.676Z,4.72
2023-03-11T07:52:34.229Z,5.07
2023-03-11T07:54:39.136Z,5.80
2023-03-11T07:56:44.280Z,4.72
2023-03-11T07:58:49.944Z,4.57
2023-03-11T08:00:57.062Z,7.13
2023-03-11T08:03:05.767Z,5.90
2023-03-11T08:05:13.220Z,6.43
2023-03-11T08:07:18.908Z,4.05
2023-03-11T08:09:24.588Z,3.55
2023-03-11T08:11:32.679Z,6.70
2023-03-11T08:13:38.838Z,7.97
2023-03-11T08:15:44.686Z,7.35
2023-03-11T08:17:50.227Z,4.50
2023-03-11T08:19:59.696Z,5.32
2023-03-11T08:22:06.232Z,7.40
2023-03-11T08:24:15.027Z,6.55
2023-03-11T08:26:24.421Z,6.10
2023-03-11T08:28:30.292Z,6.93
2023-03-11T08:30:36.870Z,9.23
2023-03-11T08:32:43.014Z,8.10
2023-03-11T08:34:48.390Z,9.10
2023-03-11T08:36:57.835Z,6.93
2023-03-11T08:39:03.904Z,6.20
2023-03-11T08:41:10.018Z,7.13
2023-03-11T08:43:17.218Z,5.97
2023-03-11T08:45:23.532Z,5.85
2023-03-11T08:47:29.237Z,12.00
2023-03-11T08:49:35.410Z,5.40
2023-03-11T08:51:42.753Z,6.03
2023-03-11T08:53:51.820Z,5.03
2023-03-11T08:55:57.713Z,5.38
2023-03-11T08:58:03.723Z,7.18
2023-03-11T09:00:13.380Z,8.85
2023-03-11T09:02:18.994Z,9.82
2023-03-11T09:04:25.223Z,5.65
2023-03-11T09:06:31.023Z,6.57
2023-03-11T09:08:37.737Z,8.68
2023-03-11T09:10:46.741Z,5.20
2023-03-11T09:12:53.666Z,9.45
2023-03-11T09:14:59.715Z,4.88
2023-03-11T09:17:05.044Z,8.48
2023-03-11T09:19:10.404Z,6.95
2023-03-11T09:21:16.659Z,5.32
2023-03-11T09:23:22.900Z,4.45
2023-03-11T09:25:28.468Z,6.75
2023-03-11T09:27:38.253Z,6.70
2023-03-11T09:29:45.610Z,5.38
2023-03-11T09:31:52.874Z,4.70
2023-03-11T09:33:59.974Z,5.95
2023-03-11T09:36:05.834Z,6.65
2023-03-11T09:38:11.367Z,3.90
2023-03-11T09:40:21.904Z,5.95
2023-03-11T09:42:40.493Z,5.10
2023-03-11T09:44:54.030Z,5.18
2023-03-11T09:47:39.722Z,4.55
2023-03-11T09:50:15.229Z,5.43
2023-03-11T09:52:27.573Z,4.43
2023-03-11T09:54:37.928Z,8.00
2023-03-11T09:56:45.358Z,5.75
2023-03-11T09:58:55.372Z,4.72
2023-03-11T10:01:00.585Z,7.03
2023-03-11T10:03:09.397Z,3.55
2023-03-11T10:05:23.030Z,8.38
2023-03-11T10:07:34.978Z,3.95
2023-03-11T10:09:50.762Z,3.78
2023-03-11T10:12:13.485Z,3.97
2023-03-11T10:14:45.938Z,5.78
2023-03-11T10:17:00.868Z,6.50
2023-03-11T10:19:18.000Z,5.57
2023-03-11T10:21:39.420Z,5.93
2023-03-11T10:24:10.188Z,5.85
2023-03-11T10:26:21.436Z,6.32
2023-03-11T10:28:34.095Z,3.42
2023-03-11T10:30:48.873Z,2.97
2023-03-11T10:32:59.710Z,5.72
2023-03-11T10:35:14.784Z,5.07
2023-03-11T10:37:30.928Z,2.45
2023-03-11T10:39:44.860Z,7.85
2023-03-11T10:41:56.971Z,4.40
2023-03-11T10:44:09.115Z,3.55
2023-03-11T10:46:22.716Z,3.92
2023-03-11T10:48:28.746Z,3.28
2023-03-11T10:50:37.468Z,2.30
2023-03-11T10:52:48.961Z,4.65
2023-03-11T10:55:05.869Z,6.85
2023-03-11T10:57:26.510Z,7.15
2023-03-11T10:59:37.563Z,6.10
2023-03-11T11:01:59.269Z,5.55
2023-03-11T11:04:05.214Z,6.90
2023-03-11T11:06:23.569Z,5.78
2023-03-11T11:08:28.531Z,2.95
2023-03-11T11:10:34.801Z,2.53
2023-03-11T11:12:40.109Z,3.78
2023-03-11T11:14:51.259Z,4.30
2023-03-11T11:16:58.795Z,4.80
2023-03-11T11:19:07.370Z,5.55
2023-03-11T11:21:17.416Z,4.60
2023-03-11T11:23:30.605Z,3.15
2023-03-11T11:25:38.343Z,4.85
2023-03-11T11:27:58.516Z,3.85
2023-03-11T11:30:18.913Z,5.00
2023-03-11T11:32:29.266Z,5.90
2023-03-11T11:34:37.009Z,5.68
2023-03-11T11:36:42.572Z,3.03
2023-03-11T11:38:47.798Z,5.88
2023-03-11T11:40:54.173Z,7.80
2023-03-11T11:43:03.560Z,4.35
2023-03-11T11:45:19.236Z,3.25
2023-03-11T11:47:31.018Z,10.15
2023-03-11T11:49:37.709Z,3.70
2023-03-11T11:51:48.545Z,2.38
2023-03-11T11:54:02.348Z,4.50
2023-03-11T11:56:07.555Z,4.45
2023-03-11T11:58:14.909Z,9.30
2023-03-11T12:00:25.432Z,2.58
2023-03-11T12:02:50.010Z,4.22
2023-03-11T12:04:59.675Z,5.63
2023-03-11T12:07:19.621Z,7.40
2023-03-11T12:09:32.927Z,2.70
2023-03-11T12:11:45.022Z,4.03
2023-03-11T12:14:03.392Z,4.83
2023-03-11T12:16:19.457Z,4.68
2023-03-11T12:18:35.330Z,3.10
2023-03-11T12:20:46.098Z,2.67
2023-03-11T12:23:21.452Z,5.43
2023-03-11T12:25:37.566Z,5.07
2023-03-11T12:27:47.660Z,4.65
2023-03-11T12:29:57.640Z,0.77
2023-03-11T12:32:04.419Z,6.25
2023-03-11T12:34:17.983Z,5.55
2023-03-11T12:36:32.059Z,3.17
2023-03-11T12:38:40.082Z,4.85
2023-03-11T12:41:09.615Z,7.75
2023-03-11T12:43:47.305Z,4.95
2023-03-11T12:45:55.856Z,2.00
2023-03-11T12:48:37.713Z,3.00
2023-03-11T12:50:47.203Z,5.10
2023-03-11T12:52:57.531Z,3.85
2023-03-11T12:55:39.603Z,4.78
2023-03-11T12:57:57.062Z,4.60
2023-03-11T13:00:45.469Z,3.78
2023-03-11T13:03:46.112Z,5.85
2023-03-11T13:06:08.366Z,4.57
2023-03-11T13:08:20.409Z,6.25
2023-03-11T13:10:43.231Z,5.07
2023-03-11T13:12:50.315Z,4.97
2023-03-11T13:15:42.917Z,2.92
2023-03-11T13:18:02.193Z,2.20
2023-03-11T13:20:56.271Z,2.55
2023-03-11T13:23:40.774Z,4.25
2023-03-11T13:26:00.500Z,2.22
2023-03-11T13:28:48.270Z,7.30
2023-03-11T13:31:00.409Z,6.15
2023-03-11T13:33:36.740Z,1.80
2023-03-11T13:36:02.732Z,4.88
2023-03-11T13:38:40.114Z,3.65
2023-03-11T13:40:49.753Z,3.60
2023-03-11T13:43:02.351Z,5.22
2023-03-11T13:45:18.070Z,3.80
2023-03-11T13:47:24.413Z,6.65
2023-03-11T13:49:38.567Z,4.53
2023-03-11T13:51:47.761Z,8.20
2023-03-11T13:53:59.033Z,4.38
2023-03-11T13:56:07.905Z,9.48
2023-03-11T13:58:23.554Z,3.25
2023-03-11T14:00:31.568Z,4.75
2023-03-11T14:02:38.632Z,3.80
2023-03-11T14:04:49.739Z,3.92
2023-03-11T14:06:55.397Z,2.63
2023-03-11T14:09:00.956Z,3.58
2023-03-11T14:11:20.405Z,5.88
2023-03-11T14:13:28.552Z,2.83
2023-03-11T14:15:47.021Z,6.78
2023-03-11T14:17:53.986Z,4.63
2023-03-11T14:20:22.222Z,3.78
2023-03-11T14:22:27.460Z,4.22
2023-03-11T14:24:34.212Z,4.43
2023-03-11T14:26:47.968Z,3.50
2023-03-11T14:28:55.848Z,2.20
2023-03-11T14:31:03.247Z,5.47
2023-03-11T14:33:24.327Z,5.55
2023-03-11T14:35:29.912Z,3.22
2023-03-11T14:37:37.010Z,5.43
2023-03-11T14:39:49.229Z,2.17
2023-03-11T14:42:05.645Z,2.63
2023-03-11T14:44:14.174Z,5.68
2023-03-11T14:46:24.356Z,4.70
2023-03-11T14:48:32.845Z,6.43
2023-03-11T14:50:38.955Z,3.65
2023-03-11T14:52:49.432Z,3.22
2023-03-11T14:54:56.514Z,5.13
2023-03-11T14:57:09.762Z,5.07
2023-03-11T14:59:23.172Z,3.13
2023-03-11T15:01:31.537Z,3.75
2023-03-11T15:03:41.270Z,4.28
2023-03-11T15:05:51.187Z,4.40
2023-03-11T15:08:03.049Z,5.22
2023-03-11T15:10:12.624Z,2.75
2023-03-11T15:12:37.547Z,2.50
2023-03-11T15:14:53.687Z,2.58
2023-03-11T15:17:23.233Z,2.35
2023-03-11T15:19:38.330Z,6.80
2023-03-11T15:21:49.387Z,4.78
2023-03-11T15:23:59.082Z,3.85
2023-03-11T15:26:04.639Z,3.88
2023-03-11T15:28:30.509Z,2.95
2023-03-11T15:30:35.851Z,6.30
2023-03-11T15:32:45.136Z,3.70
2023-03-11T15:35:04.444Z,5.03
2023-03-11T15:37:23.475Z,7.85
2023-03-11T15:39:46.847Z,2.50
2023-03-11T15:42:03.671Z,5.35
2023-03-11T15:44:27.006Z,3.05
2023-03-11T15:46:31.994Z,5.43
2023-03-11T15:48:36.922Z,3.17
2023-03-11T15:50:53.848Z,5.88
2023-03-11T15:53:01.052Z,4.28
2023-03-11T15:55:06.427Z,3.55
2023-03-11T15:57:19.923Z,2.65
2023-03-11T15:59:28.222Z,4.80
2023-03-11T16:01:33.508Z,6.80
2023-03-11T16:03:39.050Z,6.30
2023-03-11T16:05:44.693Z,4.00
2023-03-11T16:07:50.256Z,5.60
2023-03-11T16:09:55.568Z,4.28
2023-03-11T16:12:00.498Z,3.65
2023-03-11T16:14:06.841Z,5.45
2023-03-11T16:16:20.746Z,3.20
2023-03-11T16:18:25.754Z,4.90
2023-03-11T16:20:36.490Z,2.65
2023-03-11T16:22:41.623Z,3.10
2023-03-11T16:24:47.313Z,2.45
2023-03-11T16:26:53.437Z,3.47
2023-03-11T16:29:09.023Z,6.45
2023-03-11T16:31:25.750Z,3.60
2023-03-11T16:33:30.711Z,4.93
2023-03-11T16:35:36.349Z,3.30
2023-03-11T16:37:43.437Z,5.45
2023-03-11T16:39:49.122Z,7.97
2023-03-11T16:41:54.051Z,5.50
2023-03-11T16:43:58.957Z,5.03
2023-03-11T16:46:03.977Z,5.68
2023-03-11T16:48:11.615Z,6.68
2023-03-11T16:50:16.791Z,5.00
2023-03-11T16:52:23.095Z,4.32
2023-03-11T16:54:28.141Z,7.55
2023-03-11T16:56:33.236Z,5.70
2023-03-11T16:58:38.181Z,3.65
2023-03-11T17:00:43.971Z,8.20
2023-03-11T17:02:48.933Z,5.93
2023-03-11T17:04:56.499Z,5.35
2023-03-11T17:07:01.509Z,6.80
2023-03-11T17:09:06.805Z,4.25
2023-03-11T17:11:18.835Z,4.25
2023-03-11T17:13:23.828Z,10.70
2023-03-11T17:15:28.748Z,6.30
2023-03-11T17:17:33.770Z,4.70
2023-03-11T17:19:38.907Z,2.80
2023-03-11T17:21:46.588Z,4.75
2023-03-11T17:23:52.446Z,5.65
2023-03-11T17:25:57.388Z,3.22
2023-03-11T17:28:02.318Z,7.45
2023-03-11T17:30:10.490Z,7.43
2023-03-11T17:32:17.619Z,2.72
2023-03-11T17:34:22.846Z,2.83
2023-03-11T17:36:28.447Z,4.93
2023-03-11T17:38:36.419Z,5.10
2023-03-11T17:40:41.376Z,4.18
2023-03-11T17:42:46.315Z,5.55
2023-03-11T17:44:52.312Z,4.88
2023-03-11T17:46:57.319Z,5.85
2023-03-11T17:49:02.756Z,4.07
2023-03-11T17:51:10.488Z,5.28
2023-03-11T17:53:15.441Z,4.53
2023-03-11T17:55:22.996Z,4.20
2023-03-11T17:57:28.043Z,3.53
2023-03-11T17:59:32.965Z,5.00
2023-03-11T18:01:38.130Z,3.35
2023-03-11T18:03:43.338Z,4.63
2023-03-11T18:05:58.065Z,4.22
2023-03-11T18:08:03.255Z,6.28
2023-03-11T18:10:10.116Z,5.93
2023-03-11T18:12:17.734Z,4.25
2023-03-11T18:14:23.422Z,5.63
2023-03-11T18:16:31.995Z,3.80
2023-03-11T18:18:39.078Z,10.77
2023-03-11T18:20:44.108Z,8.48
2023-03-11T18:22:49.404Z,6.68
2023-03-11T18:24:54.461Z,5.85
2023-03-11T18:26:59.386Z,4.72
2023-03-11T18:29:06.958Z,4.93
2023-03-11T18:31:14.003Z,6.75
2023-03-11T18:33:19.423Z,4.40
2023-03-11T18:35:24.465Z,5.20
2023-03-11T18:37:29.769Z,6.80
2023-03-11T18:39:34.837Z,13.20
2023-03-11T18:41:39.744Z,12.63
2023-03-11T18:43:44.663Z,15.02
2023-03-11T18:45:52.424Z,17.80
2023-03-11T18:47:57.401Z,11.80
2023-03-11T18:50:02.576Z,12.85
2023-03-11T18:52:09.136Z,11.95
2023-03-11T18:54:14.674Z,13.57
2023-03-11T18:56:20.946Z,12.00
2023-03-11T18:58:25.885Z,10.30
2023-03-11T19:00:30.816Z,13.95
2023-03-11T19:02:38.386Z,10.75
2023-03-11T19:04:44.002Z,11.70
2023-03-11T19:06:50.191Z,8.00
2023-03-11T19:08:55.489Z,7.20
2023-03-11T19:11:00.523Z,9.02
2023-03-11T19:13:05.438Z,15.50
2023-03-11T19:15:12.791Z,11.80
2023-03-11T19:17:18.407Z,8.05
2023-03-11T19:19:25.988Z,10.48
2023-03-11T19:21:31.196Z,13.38
2023-03-11T19:23:37.045Z,13.95
2023-03-11T19:25:50.592Z,10.60
2023-03-11T19:28:02.046Z,15.52
2023-03-11T19:30:10.223Z,16.85
2023-03-11T19:32:15.194Z,12.07
2023-03-11T19:34:21.482Z,15.57
2023-03-11T19:36:30.194Z,13.18
2023-03-11T19:38:36.435Z,15.00
2023-03-11T19:40:41.842Z,12.45
2023-03-11T19:42:46.999Z,10.57
2023-03-11T19:44:52.398Z,13.32
2023-03-11T19:46:57.372Z,13.23
2023-03-11T19:49:02.650Z,12.02
2023-03-11T19:51:09.304Z,11.18
2023-03-11T19:53:16.843Z,8.70
2023-03-11T19:55:22.190Z,14.48
2023-03-11T19:57:27.439Z,16.65
2023-03-11T19:59:32.768Z,11.73
2023-03-11T20:01:38.181Z,15.45
2023-03-11T20:03:43.815Z,13.18
2023-03-11T20:05:50.891Z,12.65
2023-03-11T20:07:55.841Z,10.68
2023-03-11T20:10:04.144Z,11.43
2023-03-11T20:12:10.473Z,12.55
2023-03-11T20:14:15.952Z,11.05
2023-03-11T20:16:22.674Z,10.00
2023-03-11T20:18:27.685Z,11.77
2023-03-11T20:20:33.498Z,13.35
2023-03-11T20:22:38.430Z,12.15
2023-03-11T20:24:43.415Z,14.55
2023-03-11T20:26:51.435Z,12.25
2023-03-11T20:28:58.460Z,17.60
2023-03-11T20:31:11.279Z,12.38
2023-03-11T20:33:16.254Z,12.25
2023-03-11T20:35:21.426Z,11.15
2023-03-11T20:37:26.491Z,13.32
2023-03-11T20:39:31.459Z,11.65
2023-03-11T20:41:40.036Z,11.70
2023-03-11T20:43:48.262Z,13.80
2023-03-11T20:45:53.526Z,15.35
2023-03-11T20:47:58.776Z,11.23
2023-03-11T20:50:03.914Z,11.43
2023-03-11T20:52:08.864Z,14.48
2023-03-11T20:54:14.082Z,12.18
2023-03-11T20:56:24.167Z,10.10
2023-03-11T20:58:29.408Z,11.95
2023-03-11T21:00:37.068Z,10.13
2023-03-11T21:02:44.188Z,14.13
2023-03-11T21:04:49.334Z,12.00
2023-03-11T21:06:55.482Z,13.30
2023-03-11T21:09:04.882Z,12.48
2023-03-11T21:11:09.947Z,12.00
2023-03-11T21:13:15.230Z,12.25
2023-03-11T21:15:20.642Z,14.15
2023-03-11T21:17:28.912Z,13.18
2023-03-11T21:19:33.928Z,12.50
2023-03-11T21:21:39.433Z,17.10
2023-03-11T21:23:45.491Z,12.73
2023-03-11T21:25:50.566Z,12.70
2023-03-11T21:27:55.788Z,15.18
2023-03-11T21:30:02.060Z,13.45
2023-03-11T21:32:08.086Z,11.30
2023-03-11T21:34:15.769Z,16.23
2023-03-11T21:36:21.108Z,12.77
2023-03-11T21:38:27.629Z,12.45
2023-03-11T21:40:32.674Z,14.82
2023-03-11T21:42:37.600Z,11.60
2023-03-11T21:44:43.725Z,15.00
2023-03-11T21:46:49.107Z,14.93
2023-03-11T21:48:54.708Z,13.90
2023-03-11T21:51:02.366Z,13.07
2023-03-11T21:53:07.461Z,13.00
2023-03-11T21:55:13.212Z,13.23
2023-03-11T21:57:18.112Z,15.10
2023-03-11T21:59:25.501Z,14.73
2023-03-11T22:01:30.816Z,16.30
2023-03-11T22:03:36.682Z,19.02
2023-03-11T22:05:42.560Z,18.67
2023-03-11T22:07:50.503Z,13.82
2023-03-11T22:09:55.830Z,16.55
2023-03-11T22:12:00.833Z,13.50
2023-03-11T22:14:05.857Z,18.98
2023-03-11T22:16:11.535Z,15.57
2023-03-11T22:18:16.796Z,16.20
2023-03-11T22:20:22.266Z,19.60
2023-03-11T22:22:27.491Z,14.73
2023-03-11T22:24:35.009Z,14.65
2023-03-11T22:26:40.381Z,15.85
2023-03-11T22:28:45.576Z,16.67
2023-03-11T22:30:50.478Z,15.82
2023-03-11T22:32:55.537Z,20.02
2023-03-11T22:35:00.575Z,17.80
2023-03-11T22:37:05.514Z,14.80
2023-03-11T22:39:10.499Z,17.40
2023-03-11T22:41:20.262Z,16.88
2023-03-11T22:43:25.597Z,15.27
2023-03-11T22:45:30.617Z,15.55
2023-03-11T22:47:36.137Z,15.45
2023-03-11T22:49:41.417Z,16.17
2023-03-11T22:51:46.354Z,17.77
2023-03-11T22:53:51.318Z,16.35
2023-03-11T22:55:56.297Z,15.75
2023-03-11T22:58:03.881Z,12.27
2023-03-11T23:00:17.265Z,13.57
2023-03-11T23:02:22.289Z,13.77
2023-03-11T23:04:27.456Z,13.55
2023-03-11T23:06:32.534Z,14.82
2023-03-11T23:08:38.144Z,15.43
2023-03-11T23:10:44.224Z,15.82
2023-03-11T23:12:49.564Z,14.27
2023-03-11T23:14:57.037Z,15.35
2023-03-11T23:17:02.022Z,17.27
2023-03-11T23:19:06.973Z,18.60
2023-03-11T23:21:19.625Z,19.00
2023-03-11T23:23:25.089Z,15.13
2023-03-11T23:25:30.150Z,13.55
2023-03-11T23:27:35.769Z,16.25
2023-03-11T23:29:44.072Z,13.23
2023-03-11T23:31:51.604Z,13.63
2023-03-11T23:33:56.917Z,14.60
2023-03-11T23:36:03.771Z,17.92
2023-03-11T23:38:08.712Z,15.10
2023-03-11T23:40:15.319Z,15.35
2023-03-11T23:42:25.862Z,14.25
2023-03-11T23:44:31.660Z,16.42
2023-03-11T23:46:36.628Z,15.05
2023-03-11T23:48:44.672Z,11.77
2023-03-11T23:50:49.854Z,14.48
2023-03-11T23:52:54.779Z,15.73
2023-03-11T23:54:59.720Z,17.08
2023-03-11T23:57:04.689Z,11.93
2023-03-11T23:59:10.197Z,10.98
